createdAt,value
2019-02-22T00:00:41.146Z,987.64
2019-02-22T00:01:41.144Z,987.66
2019-02-22T00:02:41.121Z,987.71
2019-02-22T00:03:41.120Z,987.64
2019-02-22T00:04:41.149Z,987.66
2019-02-22T00:05:41.189Z,987.62
2019-02-22T00:06:41.497Z,987.62
2019-02-22T00:07:41.272Z,987.61
2019-02-22T00:08:42.195Z,987.59
2019-02-22T00:09:49.174Z,987.60
2019-02-22T00:10:41.454Z,987.55
2019-02-22T00:11:41.106Z,987.53
2019-02-22T00:12:41.206Z,987.53
2019-02-22T00:13:41.352Z,987.53
2019-02-22T00:14:43.707Z,987.55
2019-02-22T00:15:41.030Z,987.53
2019-02-22T00:16:41.030Z,987.50
2019-02-22T00:17:41.047Z,987.52
2019-02-22T00:18:41.053Z,987.48
2019-02-22T00:19:42.074Z,987.47
2019-02-22T00:20:41.339Z,987.50
2019-02-22T00:21:41.080Z,987.43
2019-02-22T00:22:41.080Z,987.41
2019-02-22T00:23:41.053Z,987.45
2019-02-22T00:24:41.114Z,987.51
2019-02-22T00:25:41.320Z,987.58
2019-02-22T00:26:41.112Z,987.55
2019-02-22T00:27:41.123Z,987.55
2019-02-22T00:28:41.121Z,987.50
2019-02-22T00:29:41.329Z,987.58
2019-02-22T00:30:41.143Z,987.56
2019-02-22T00:31:41.142Z,987.55
2019-02-22T00:32:42.556Z,987.57
2019-02-22T00:33:41.214Z,987.61
2019-02-22T00:34:41.190Z,987.65
2019-02-22T00:35:41.272Z,987.67
2019-02-22T00:36:41.244Z,987.70
2019-02-22T00:37:41.189Z,987.69
2019-02-22T00:38:41.215Z,987.61
2019-02-22T00:39:41.025Z,987.66
2019-02-22T00:40:41.399Z,987.63
2019-02-22T00:41:41.011Z,987.63
2019-02-22T00:42:41.024Z,987.68
2019-02-22T00:43:41.865Z,987.71
2019-02-22T00:44:41.055Z,987.69
2019-02-22T00:45:41.036Z,987.74
2019-02-22T00:46:41.048Z,987.69
2019-02-22T00:47:41.068Z,987.64
2019-02-22T00:48:41.108Z,987.67
2019-02-22T00:49:41.105Z,987.60
2019-02-22T00:50:41.078Z,987.63
2019-02-22T00:51:41.087Z,987.61
2019-02-22T00:52:41.067Z,987.57
2019-02-22T00:53:41.096Z,987.63
2019-02-22T00:54:41.138Z,987.52
2019-02-22T00:55:41.116Z,987.51
2019-02-22T00:56:41.160Z,987.53
2019-02-22T00:57:41.150Z,987.51
2019-02-22T00:58:41.118Z,987.43
2019-02-22T00:59:41.140Z,987.48
2019-02-22T01:00:41.185Z,987.53
2019-02-22T01:01:41.186Z,987.48
2019-02-22T01:02:41.159Z,987.44
2019-02-22T01:03:41.192Z,987.48
2019-02-22T01:04:41.221Z,987.50
2019-02-22T01:05:41.187Z,987.52
2019-02-22T01:06:41.455Z,987.50
2019-02-22T01:07:41.442Z,987.54
2019-02-22T01:08:41.387Z,987.46
2019-02-22T01:09:41.207Z,987.44
2019-02-22T01:10:41.071Z,987.50
2019-02-22T01:11:41.046Z,987.45
2019-02-22T01:12:41.057Z,987.43
2019-02-22T01:13:41.244Z,987.41
2019-02-22T01:14:41.093Z,987.38
2019-02-22T01:15:41.073Z,987.25
2019-02-22T01:16:41.046Z,987.03
2019-02-22T01:17:41.075Z,987.08
2019-02-22T01:18:41.084Z,987.08
2019-02-22T01:19:41.101Z,987.12
2019-02-22T01:20:41.289Z,987.11
2019-02-22T01:21:41.117Z,987.13
2019-02-22T01:22:41.720Z,987.10
2019-02-22T01:23:41.107Z,987.09
2019-02-22T01:24:41.153Z,987.10
2019-02-22T01:25:41.149Z,987.16
2019-02-22T01:26:41.120Z,987.09
2019-02-22T01:27:41.342Z,987.12
2019-02-22T01:28:41.357Z,987.06
2019-02-22T01:29:41.407Z,987.13
2019-02-22T01:30:41.387Z,987.01
2019-02-22T01:31:41.373Z,987.05
2019-02-22T01:32:41.397Z,987.11
2019-02-22T01:33:41.405Z,987.09
2019-02-22T01:34:41.393Z,987.10
2019-02-22T01:35:41.389Z,987.02
2019-02-22T01:36:41.405Z,987.03
2019-02-22T01:37:41.438Z,986.97
2019-02-22T01:38:41.433Z,986.98
2019-02-22T01:39:41.607Z,986.98
2019-02-22T01:40:43.959Z,986.95
2019-02-22T01:41:41.830Z,986.91
2019-02-22T01:42:41.503Z,986.99
2019-02-22T01:43:41.683Z,986.94
2019-02-22T01:44:41.478Z,986.93
2019-02-22T01:45:41.459Z,986.97
2019-02-22T01:46:41.482Z,986.89
2019-02-22T01:47:41.687Z,986.93
2019-02-22T01:48:41.491Z,986.91
2019-02-22T01:49:41.715Z,986.95
2019-02-22T01:50:41.505Z,986.94
2019-02-22T01:51:41.371Z,986.91
2019-02-22T01:52:41.314Z,986.88
2019-02-22T01:53:41.331Z,986.81
2019-02-22T01:54:41.338Z,986.87
2019-02-22T01:55:41.574Z,986.83
2019-02-22T01:56:41.349Z,986.81
2019-02-22T01:57:41.561Z,986.76
2019-02-22T01:58:48.708Z,986.85
2019-02-22T01:59:41.377Z,986.83
2019-02-22T02:00:41.393Z,986.80
2019-02-22T02:01:41.403Z,986.82
2019-02-22T02:02:41.403Z,986.79
2019-02-22T02:03:41.380Z,986.82
2019-02-22T02:04:41.435Z,986.80
2019-02-22T02:05:41.426Z,986.74
2019-02-22T02:06:41.462Z,986.71
2019-02-22T02:07:41.438Z,986.66
2019-02-22T02:08:41.477Z,986.67
2019-02-22T02:09:41.636Z,986.66
2019-02-22T02:10:41.634Z,986.64
2019-02-22T02:11:41.473Z,986.64
2019-02-22T02:12:41.512Z,986.71
2019-02-22T02:13:41.513Z,986.66
2019-02-22T02:14:42.915Z,986.64
2019-02-22T02:15:41.525Z,986.66
2019-02-22T02:16:41.497Z,986.62
2019-02-22T02:17:41.711Z,986.66
2019-02-22T02:18:41.520Z,986.67
2019-02-22T02:19:41.377Z,986.58
2019-02-22T02:20:41.349Z,986.53
2019-02-22T02:21:41.341Z,986.56
2019-02-22T02:22:41.376Z,986.59
2019-02-22T02:23:41.345Z,986.58
2019-02-22T02:24:41.355Z,986.62
2019-02-22T02:25:41.383Z,986.55
2019-02-22T02:26:41.390Z,986.57
2019-02-22T02:27:41.392Z,986.56
2019-02-22T02:28:41.575Z,986.55
2019-02-22T02:29:41.484Z,986.56
2019-02-22T02:30:41.407Z,986.60
2019-02-22T02:31:41.625Z,986.47
2019-02-22T02:32:41.397Z,986.50
2019-02-22T02:33:41.680Z,986.47
2019-02-22T02:34:41.423Z,986.50
2019-02-22T02:35:41.432Z,986.47
2019-02-22T02:36:41.641Z,986.45
2019-02-22T02:37:41.475Z,986.42
2019-02-22T02:38:41.457Z,986.42
2019-02-22T02:39:41.448Z,986.43
2019-02-22T02:40:41.448Z,986.48
2019-02-22T02:41:41.500Z,986.46
2019-02-22T02:42:41.693Z,986.44
2019-02-22T02:43:41.502Z,986.49
2019-02-22T02:44:41.540Z,986.44
2019-02-22T02:45:41.501Z,986.49
2019-02-22T02:46:41.510Z,986.50
2019-02-22T02:47:41.518Z,986.49
2019-02-22T02:48:41.561Z,986.55
2019-02-22T02:49:41.545Z,986.55
2019-02-22T02:50:41.537Z,986.51
2019-02-22T02:51:41.528Z,986.50
2019-02-22T02:52:41.575Z,986.52
2019-02-22T02:53:41.570Z,986.55
2019-02-22T02:54:41.599Z,986.44
2019-02-22T02:55:41.594Z,986.50
2019-02-22T02:56:41.579Z,986.49
2019-02-22T02:57:41.601Z,986.41
2019-02-22T02:58:41.605Z,986.53
2019-02-22T02:59:41.821Z,986.49
2019-02-22T03:00:41.600Z,986.45
2019-02-22T03:01:41.616Z,986.44
2019-02-22T03:02:41.634Z,986.45
2019-02-22T03:03:41.630Z,986.40
2019-02-22T03:04:41.701Z,986.40
2019-02-22T03:05:41.853Z,986.37
2019-02-22T03:06:41.656Z,986.33
2019-02-22T03:07:41.689Z,986.42
2019-02-22T03:08:41.679Z,986.37
2019-02-22T03:09:41.752Z,986.30
2019-02-22T03:10:42.310Z,986.26
2019-02-22T03:11:42.121Z,986.20
2019-02-22T03:12:41.930Z,986.24
2019-02-22T03:13:42.135Z,986.27
2019-02-22T03:14:41.932Z,986.30
2019-02-22T03:15:42.161Z,986.30
2019-02-22T03:16:41.943Z,986.28
2019-02-22T03:17:41.937Z,986.30
2019-02-22T03:18:41.936Z,986.28
2019-02-22T03:19:41.967Z,986.21
2019-02-22T03:20:42.161Z,986.22
2019-02-22T03:21:41.994Z,986.23
2019-02-22T03:22:42.026Z,986.16
2019-02-22T03:23:41.999Z,986.10
2019-02-22T03:24:42.033Z,986.18
2019-02-22T03:25:41.998Z,986.14
2019-02-22T03:26:42.029Z,986.06
2019-02-22T03:27:42.085Z,986.06
2019-02-22T03:28:42.021Z,986.07
2019-02-22T03:29:42.044Z,986.07
2019-02-22T03:30:42.061Z,986.08
2019-02-22T03:31:42.066Z,986.00
2019-02-22T03:32:42.057Z,986.00
2019-02-22T03:33:42.147Z,986.04
2019-02-22T03:34:42.117Z,985.95
2019-02-22T03:35:42.052Z,985.92
2019-02-22T03:36:42.093Z,985.88
2019-02-22T03:37:42.273Z,985.94
2019-02-22T03:38:42.103Z,985.95
2019-02-22T03:39:42.128Z,985.95
2019-02-22T03:40:42.106Z,985.91
2019-02-22T03:41:42.299Z,985.91
2019-02-22T03:42:42.116Z,985.95
2019-02-22T03:43:42.136Z,985.84
2019-02-22T03:44:42.176Z,985.88
2019-02-22T03:45:42.136Z,985.89
2019-02-22T03:46:42.372Z,985.87
2019-02-22T03:47:42.172Z,985.83
2019-02-22T03:48:42.172Z,985.86
2019-02-22T03:49:42.201Z,985.81
2019-02-22T03:50:42.227Z,985.90
2019-02-22T03:51:42.383Z,985.83
2019-02-22T03:52:42.225Z,985.81
2019-02-22T03:53:42.221Z,985.80
2019-02-22T03:54:42.255Z,985.86
2019-02-22T03:55:42.241Z,985.81
2019-02-22T03:56:42.243Z,985.81
2019-02-22T03:57:42.229Z,985.79
2019-02-22T03:58:42.453Z,985.76
2019-02-22T03:59:42.464Z,985.74
2019-02-22T04:00:42.481Z,985.68
2019-02-22T04:01:42.475Z,985.73
2019-02-22T04:02:42.513Z,985.72
2019-02-22T04:03:42.523Z,985.64
2019-02-22T04:04:42.531Z,985.71
2019-02-22T04:05:42.512Z,985.72
2019-02-22T04:06:42.522Z,985.76
2019-02-22T04:07:42.510Z,985.76
2019-02-22T04:08:42.523Z,985.75
2019-02-22T04:09:42.515Z,985.78
2019-02-22T04:10:42.547Z,985.74
2019-02-22T04:11:45.944Z,985.70
2019-02-22T04:12:42.544Z,985.73
2019-02-22T04:13:42.597Z,985.80
2019-02-22T04:14:42.556Z,985.79
2019-02-22T04:15:42.600Z,985.79
2019-02-22T04:16:42.593Z,985.81
2019-02-22T04:17:42.658Z,985.75
2019-02-22T04:18:42.618Z,985.76
2019-02-22T04:19:42.594Z,985.81
2019-02-22T04:20:42.394Z,985.79
2019-02-22T04:21:42.438Z,985.80
2019-02-22T04:22:44.474Z,985.86
2019-02-22T04:23:42.462Z,985.80
2019-02-22T04:24:42.434Z,985.80
2019-02-22T04:25:42.457Z,985.79
2019-02-22T04:26:43.063Z,985.74
2019-02-22T04:27:42.468Z,985.70
2019-02-22T04:28:42.483Z,985.75
2019-02-22T04:29:42.470Z,985.76
2019-02-22T04:30:42.474Z,985.80
2019-02-22T04:31:42.502Z,985.84
2019-02-22T04:32:42.533Z,985.82
2019-02-22T04:33:42.552Z,985.86
2019-02-22T04:34:42.529Z,985.84
2019-02-22T04:35:42.527Z,985.79
2019-02-22T04:36:42.537Z,985.86
2019-02-22T04:37:42.521Z,985.86
2019-02-22T04:38:42.562Z,985.90
2019-02-22T04:39:42.553Z,985.91
2019-02-22T04:40:42.574Z,985.84
2019-02-22T04:41:42.559Z,985.91
2019-02-22T04:42:42.574Z,985.94
2019-02-22T04:43:42.590Z,985.95
2019-02-22T04:44:42.599Z,985.95
2019-02-22T04:45:42.601Z,985.98
2019-02-22T04:46:42.601Z,986.05
2019-02-22T04:47:42.628Z,986.02
2019-02-22T04:48:42.622Z,986.09
2019-02-22T04:49:42.603Z,986.07
2019-02-22T04:50:42.611Z,986.04
2019-02-22T04:51:42.431Z,986.09
2019-02-22T04:52:42.848Z,986.02
2019-02-22T04:53:42.434Z,986.05
2019-02-22T04:54:42.530Z,986.08
2019-02-22T04:55:42.463Z,986.16
2019-02-22T04:56:42.474Z,986.13
2019-02-22T04:57:42.499Z,986.08
2019-02-22T04:58:42.730Z,986.03
2019-02-22T04:59:42.476Z,986.13
2019-02-22T05:00:42.502Z,986.09
2019-02-22T05:01:42.500Z,986.08
2019-02-22T05:02:42.510Z,986.09
2019-02-22T05:03:42.568Z,986.04
2019-02-22T05:04:42.538Z,985.98
2019-02-22T05:05:42.566Z,986.03
2019-02-22T05:06:42.530Z,985.97
2019-02-22T05:07:42.598Z,985.98
2019-02-22T05:08:42.550Z,986.00
2019-02-22T05:09:42.586Z,986.07
2019-02-22T05:10:42.562Z,985.99
2019-02-22T05:11:42.573Z,985.96
2019-02-22T05:12:42.594Z,985.93
2019-02-22T05:13:42.596Z,985.91
2019-02-22T05:14:42.618Z,985.94
2019-02-22T05:15:42.605Z,985.90
2019-02-22T05:16:42.611Z,985.89
2019-02-22T05:17:42.665Z,986.01
2019-02-22T05:18:42.643Z,985.94
2019-02-22T05:19:42.641Z,986.01
2019-02-22T05:20:42.645Z,985.89
2019-02-22T05:21:42.454Z,985.98
2019-02-22T05:22:42.672Z,985.94
2019-02-22T05:23:42.467Z,985.95
2019-02-22T05:24:42.468Z,985.95
2019-02-22T05:25:42.488Z,985.87
2019-02-22T05:26:42.671Z,985.98
2019-02-22T05:27:42.507Z,986.02
2019-02-22T05:28:42.501Z,985.99
2019-02-22T05:29:42.516Z,985.99
2019-02-22T05:30:42.514Z,986.02
2019-02-22T05:31:42.504Z,986.02
2019-02-22T05:32:42.525Z,986.02
2019-02-22T05:33:42.563Z,986.04
2019-02-22T05:34:42.594Z,986.03
2019-02-22T05:35:42.543Z,986.04
2019-02-22T05:36:44.239Z,986.01
2019-02-22T05:37:42.565Z,985.99
2019-02-22T05:38:42.765Z,986.02
2019-02-22T05:39:42.607Z,986.07
2019-02-22T05:40:42.608Z,985.98
2019-02-22T05:41:42.615Z,986.01
2019-02-22T05:42:42.589Z,985.98
2019-02-22T05:43:42.794Z,986.04
2019-02-22T05:44:42.610Z,985.98
2019-02-22T05:45:42.623Z,985.96
2019-02-22T05:46:42.646Z,986.01
2019-02-22T05:47:42.633Z,986.10
2019-02-22T05:48:42.640Z,986.01
2019-02-22T05:49:42.646Z,986.03
2019-02-22T05:50:42.665Z,986.07
2019-02-22T05:51:42.884Z,986.00
2019-02-22T05:52:42.469Z,986.00
2019-02-22T05:53:42.534Z,986.01
2019-02-22T05:54:42.664Z,986.03
2019-02-22T05:55:44.329Z,986.02
2019-02-22T05:56:42.499Z,986.02
2019-02-22T05:57:42.714Z,986.02
2019-02-22T05:58:42.531Z,986.09
2019-02-22T05:59:42.520Z,986.05
2019-02-22T06:00:42.513Z,986.08
2019-02-22T06:01:42.523Z,986.00
2019-02-22T06:02:42.827Z,986.07
2019-02-22T06:03:42.536Z,986.03
2019-02-22T06:04:42.539Z,986.10
2019-02-22T06:05:42.572Z,986.00
2019-02-22T06:06:42.590Z,986.03
2019-02-22T06:07:42.621Z,986.08
2019-02-22T06:08:42.597Z,986.09
2019-02-22T06:09:42.605Z,986.01
2019-02-22T06:10:42.815Z,986.08
2019-02-22T06:11:42.638Z,986.08
2019-02-22T06:12:42.612Z,986.08
2019-02-22T06:13:42.649Z,986.15
2019-02-22T06:14:43.042Z,986.11
2019-02-22T06:15:42.632Z,986.10
2019-02-22T06:16:42.656Z,986.20
2019-02-22T06:17:42.864Z,986.21
2019-02-22T06:18:42.720Z,986.15
2019-02-22T06:19:42.666Z,986.12
2019-02-22T06:20:42.681Z,986.15
2019-02-22T06:21:42.700Z,986.13
2019-02-22T06:22:42.705Z,986.13
2019-02-22T06:23:42.485Z,986.18
2019-02-22T06:24:42.493Z,986.15
2019-02-22T06:25:42.516Z,986.17
2019-02-22T06:26:42.731Z,986.12
2019-02-22T06:27:42.500Z,986.20
2019-02-22T06:28:42.535Z,986.15
2019-02-22T06:29:42.582Z,986.23
2019-02-22T06:30:42.593Z,986.24
2019-02-22T06:31:42.557Z,986.31
2019-02-22T06:32:42.654Z,986.29
2019-02-22T06:33:42.553Z,986.29
2019-02-22T06:34:42.577Z,986.23
2019-02-22T06:35:42.588Z,986.30
2019-02-22T06:36:42.599Z,986.25
2019-02-22T06:37:42.638Z,986.28
2019-02-22T06:38:42.844Z,986.32
2019-02-22T06:39:42.629Z,986.31
2019-02-22T06:40:43.035Z,986.31
2019-02-22T06:41:42.619Z,986.38
2019-02-22T06:42:45.709Z,986.38
2019-02-22T06:43:42.725Z,986.39
2019-02-22T06:44:42.679Z,986.32
2019-02-22T06:45:42.639Z,986.30
2019-02-22T06:46:42.661Z,986.41
2019-02-22T06:47:42.644Z,986.37
2019-02-22T06:48:42.660Z,986.44
2019-02-22T06:49:44.508Z,986.40
2019-02-22T06:50:42.714Z,986.41
2019-02-22T06:51:42.664Z,986.39
2019-02-22T06:52:42.705Z,986.43
2019-02-22T06:53:42.492Z,986.37
2019-02-22T06:54:42.565Z,986.43
2019-02-22T06:55:42.543Z,986.47
2019-02-22T06:56:42.562Z,986.48
2019-02-22T06:57:42.534Z,986.47
2019-02-22T06:58:42.537Z,986.51
2019-02-22T06:59:42.536Z,986.59
2019-02-22T07:00:42.579Z,986.54
2019-02-22T07:01:42.576Z,986.61
2019-02-22T07:02:42.836Z,986.65
2019-02-22T07:03:42.812Z,986.64
2019-02-22T07:04:42.557Z,986.68
2019-02-22T07:05:42.627Z,986.71
2019-02-22T07:06:42.775Z,986.68
2019-02-22T07:07:42.687Z,986.73
2019-02-22T07:08:42.618Z,986.76
2019-02-22T07:09:42.624Z,986.72
2019-02-22T07:10:43.036Z,986.76
2019-02-22T07:11:42.645Z,986.71
2019-02-22T07:12:42.640Z,986.79
2019-02-22T07:13:42.902Z,986.76
2019-02-22T07:14:42.666Z,986.82
2019-02-22T07:15:42.669Z,986.81
2019-02-22T07:16:42.663Z,986.81
2019-02-22T07:17:42.647Z,986.79
2019-02-22T07:18:42.726Z,986.79
2019-02-22T07:19:42.740Z,986.84
2019-02-22T07:20:42.903Z,986.81
2019-02-22T07:21:52.057Z,986.89
2019-02-22T07:22:42.913Z,986.82
2019-02-22T07:23:42.716Z,986.84
2019-02-22T07:24:42.543Z,986.85
2019-02-22T07:25:42.576Z,986.86
2019-02-22T07:26:42.541Z,986.88
2019-02-22T07:27:42.555Z,986.83
2019-02-22T07:28:42.777Z,986.90
2019-02-22T07:29:42.764Z,986.85
2019-02-22T07:30:42.563Z,986.81
2019-02-22T07:31:42.639Z,986.84
2019-02-22T07:32:42.649Z,986.78
2019-02-22T07:33:42.613Z,986.78
2019-02-22T07:34:42.641Z,986.87
2019-02-22T07:35:42.616Z,986.82
2019-02-22T07:36:42.679Z,986.79
2019-02-22T07:37:43.253Z,986.80
2019-02-22T07:38:42.810Z,986.86
2019-02-22T07:39:42.647Z,986.83
2019-02-22T07:40:43.053Z,986.79
2019-02-22T07:41:42.650Z,986.81
2019-02-22T07:42:42.689Z,986.85
2019-02-22T07:43:42.664Z,986.99
2019-02-22T07:44:42.679Z,986.93
2019-02-22T07:45:42.664Z,987.00
2019-02-22T07:46:42.706Z,987.05
2019-02-22T07:47:42.674Z,987.06
2019-02-22T07:48:42.713Z,987.11
2019-02-22T07:49:42.737Z,987.13
2019-02-22T07:50:43.108Z,987.08
2019-02-22T07:51:42.948Z,987.18
2019-02-22T07:52:45.213Z,987.20
2019-02-22T07:53:42.734Z,987.16
2019-02-22T07:54:42.567Z,987.18
2019-02-22T07:55:42.610Z,987.18
2019-02-22T07:56:42.764Z,987.12
2019-02-22T07:57:42.545Z,987.11
2019-02-22T07:58:42.561Z,987.18
2019-02-22T07:59:42.590Z,987.12
2019-02-22T08:00:42.621Z,987.17
2019-02-22T08:01:47.310Z,987.11
2019-02-22T08:02:42.602Z,987.05
2019-02-22T08:03:42.612Z,987.10
2019-02-22T08:04:42.631Z,987.09
2019-02-22T08:05:43.234Z,987.09
2019-02-22T08:06:42.698Z,987.09
2019-02-22T08:07:42.715Z,987.10
2019-02-22T08:08:42.637Z,987.18
2019-02-22T08:09:42.644Z,987.15
2019-02-22T08:10:42.656Z,987.16
2019-02-22T08:11:42.689Z,987.19
2019-02-22T08:12:42.692Z,987.19
2019-02-22T08:13:42.731Z,987.25
2019-02-22T08:14:42.667Z,987.21
2019-02-22T08:15:42.721Z,987.20
2019-02-22T08:16:42.718Z,987.20
2019-02-22T08:17:42.720Z,987.30
2019-02-22T08:18:42.725Z,987.31
2019-02-22T08:19:42.715Z,987.29
2019-02-22T08:20:42.722Z,987.36
2019-02-22T08:21:42.741Z,987.32
2019-02-22T08:22:43.344Z,987.37
2019-02-22T08:23:43.594Z,987.37
2019-02-22T08:24:42.787Z,987.30
2019-02-22T08:25:42.538Z,987.31
2019-02-22T08:26:42.963Z,987.37
2019-02-22T08:27:53.173Z,987.37
2019-02-22T08:28:42.591Z,987.31
2019-02-22T08:29:42.624Z,987.35
2019-02-22T08:30:42.609Z,987.32
2019-02-22T08:31:42.659Z,987.27
2019-02-22T08:32:42.615Z,987.31
2019-02-22T08:33:42.628Z,987.41
2019-02-22T08:34:42.659Z,987.31
2019-02-22T08:35:42.649Z,987.35
2019-02-22T08:36:42.669Z,987.37
2019-02-22T08:37:42.649Z,987.36
2019-02-22T08:38:42.661Z,987.46
2019-02-22T08:39:42.672Z,987.40
2019-02-22T08:40:42.698Z,987.46
2019-02-22T08:41:42.695Z,987.39
2019-02-22T08:42:42.733Z,987.39
2019-02-22T08:43:42.716Z,987.47
2019-02-22T08:44:42.699Z,987.48
2019-02-22T08:45:42.728Z,987.48
2019-02-22T08:46:42.730Z,987.45
2019-02-22T08:47:42.731Z,987.49
2019-02-22T08:48:42.754Z,987.44
2019-02-22T08:49:42.736Z,987.44
2019-02-22T08:50:42.945Z,987.46
2019-02-22T08:51:42.764Z,987.54
2019-02-22T08:52:42.795Z,987.53
2019-02-22T08:53:42.778Z,987.58
2019-02-22T08:54:47.201Z,987.58
2019-02-22T08:55:42.782Z,987.63
2019-02-22T08:56:43.197Z,987.73
2019-02-22T08:57:42.638Z,987.68
2019-02-22T08:58:42.616Z,987.69
2019-02-22T08:59:42.667Z,987.72
2019-02-22T09:00:42.627Z,987.70
2019-02-22T09:01:42.815Z,987.70
2019-02-22T09:02:43.249Z,987.68
2019-02-22T09:03:50.638Z,987.70
2019-02-22T09:04:42.682Z,987.66
2019-02-22T09:05:42.732Z,987.74
2019-02-22T09:06:42.672Z,987.72
2019-02-22T09:07:43.048Z,987.65
2019-02-22T09:08:42.674Z,987.67
2019-02-22T09:09:42.709Z,987.65
2019-02-22T09:10:43.094Z,987.70
2019-02-22T09:11:42.715Z,987.72
2019-02-22T09:12:42.698Z,987.68
2019-02-22T09:13:43.734Z,987.71
2019-02-22T09:14:42.710Z,987.71
2019-02-22T09:15:43.569Z,987.73
2019-02-22T09:16:42.780Z,987.74
2019-02-22T09:17:42.749Z,987.76
2019-02-22T09:18:42.770Z,987.76
2019-02-22T09:19:42.755Z,987.79
2019-02-22T09:20:42.803Z,987.77
2019-02-22T09:21:42.803Z,987.81
2019-02-22T09:22:42.774Z,987.77
2019-02-22T09:23:42.804Z,987.76
2019-02-22T09:24:42.787Z,987.78
2019-02-22T09:25:42.794Z,987.85
2019-02-22T09:26:42.841Z,987.80
2019-02-22T09:27:42.635Z,987.81
2019-02-22T09:28:42.632Z,987.81
2019-02-22T09:29:42.616Z,987.85
2019-02-22T09:30:42.613Z,987.84
2019-02-22T09:31:42.642Z,987.88
2019-02-22T09:32:42.652Z,987.89
2019-02-22T09:33:42.640Z,987.90
2019-02-22T09:34:42.662Z,987.95
2019-02-22T09:35:42.871Z,987.96
2019-02-22T09:36:42.714Z,987.92
2019-02-22T09:37:42.749Z,987.98
2019-02-22T09:38:42.696Z,987.92
2019-02-22T09:39:42.711Z,988.00
2019-02-22T09:40:42.722Z,987.96
2019-02-22T09:41:42.740Z,987.94
2019-02-22T09:42:42.917Z,988.02
2019-02-22T09:43:42.723Z,987.93
2019-02-22T09:44:42.734Z,987.92
2019-02-22T09:45:42.756Z,987.97
2019-02-22T09:46:42.745Z,987.97
2019-02-22T09:47:42.756Z,987.94
2019-02-22T09:48:42.788Z,988.06
2019-02-22T09:49:42.772Z,987.98
2019-02-22T09:50:43.005Z,988.01
2019-02-22T09:51:42.805Z,988.05
2019-02-22T09:52:42.780Z,987.98
2019-02-22T09:53:42.825Z,988.07
2019-02-22T09:54:42.791Z,988.00
2019-02-22T09:55:42.801Z,988.03
2019-02-22T09:56:42.842Z,988.05
2019-02-22T09:57:42.834Z,988.08
2019-02-22T09:58:42.829Z,988.08
2019-02-22T09:59:42.846Z,988.03
2019-02-22T10:00:42.836Z,988.16
2019-02-22T10:01:42.838Z,988.08
2019-02-22T10:02:44.894Z,988.26
2019-02-22T10:03:42.875Z,988.12
2019-02-22T10:04:54.248Z,988.14
2019-02-22T10:05:42.861Z,988.14
2019-02-22T10:06:42.902Z,988.10
2019-02-22T10:07:42.906Z,988.15
2019-02-22T10:08:42.937Z,988.13
2019-02-22T10:09:42.948Z,988.09
2019-02-22T10:10:42.925Z,988.21
2019-02-22T10:11:42.928Z,988.14
2019-02-22T10:12:42.772Z,988.22
2019-02-22T10:13:42.723Z,988.21
2019-02-22T10:14:42.761Z,988.13
2019-02-22T10:15:42.967Z,988.16
2019-02-22T10:16:42.768Z,988.23
2019-02-22T10:17:42.763Z,988.28
2019-02-22T10:18:42.771Z,988.34
2019-02-22T10:19:42.798Z,988.23
2019-02-22T10:20:42.775Z,988.33
2019-02-22T10:21:42.812Z,988.40
2019-02-22T10:22:42.806Z,988.28
2019-02-22T10:23:42.835Z,988.30
2019-02-22T10:24:42.847Z,988.27
2019-02-22T10:25:42.827Z,988.27
2019-02-22T10:26:42.845Z,988.14
2019-02-22T10:27:42.857Z,988.19
2019-02-22T10:28:42.868Z,988.15
2019-02-22T10:29:42.867Z,988.24
2019-02-22T10:30:42.867Z,988.31
2019-02-22T10:31:42.885Z,988.17
2019-02-22T10:32:43.080Z,988.18
2019-02-22T10:33:42.898Z,988.10
2019-02-22T10:34:42.897Z,988.24
2019-02-22T10:35:42.947Z,988.12
2019-02-22T10:36:45.372Z,988.09
2019-02-22T10:37:42.915Z,988.02
2019-02-22T10:38:42.955Z,988.13
2019-02-22T10:39:42.952Z,988.10
2019-02-22T10:40:42.963Z,988.08
2019-02-22T10:41:42.935Z,988.12
2019-02-22T10:42:42.953Z,988.07
2019-02-22T10:43:42.957Z,988.20
2019-02-22T10:44:42.803Z,988.02
2019-02-22T10:45:42.980Z,988.02
2019-02-22T10:46:42.771Z,988.01
2019-02-22T10:47:42.808Z,988.06
2019-02-22T10:48:42.773Z,987.98
2019-02-22T10:49:42.812Z,988.11
2019-02-22T10:50:42.839Z,988.18
2019-02-22T10:51:42.841Z,988.09
2019-02-22T10:52:42.839Z,988.14
2019-02-22T10:53:42.834Z,988.19
2019-02-22T10:54:42.836Z,988.08
2019-02-22T10:55:42.852Z,987.94
2019-02-22T10:56:42.871Z,988.10
2019-02-22T10:57:42.851Z,988.19
2019-02-22T10:58:42.896Z,988.14
2019-02-22T10:59:42.875Z,988.14
2019-02-22T11:00:42.864Z,988.22
2019-02-22T11:01:42.905Z,988.10
2019-02-22T11:02:42.900Z,988.19
2019-02-22T11:03:42.899Z,988.25
2019-02-22T11:04:42.934Z,988.34
2019-02-22T11:05:42.897Z,988.19
2019-02-22T11:06:42.927Z,988.26
2019-02-22T11:07:42.952Z,988.28
2019-02-22T11:08:42.963Z,988.25
2019-02-22T11:09:42.927Z,988.33
2019-02-22T11:10:42.948Z,988.37
2019-02-22T11:11:42.966Z,988.22
2019-02-22T11:12:43.010Z,988.30
2019-02-22T11:13:42.974Z,988.18
2019-02-22T11:14:42.805Z,988.28
2019-02-22T11:15:42.789Z,988.28
2019-02-22T11:16:42.797Z,988.28
2019-02-22T11:17:42.796Z,988.19
2019-02-22T11:18:42.815Z,988.18
2019-02-22T11:19:42.818Z,988.31
2019-02-22T11:20:42.829Z,988.33
2019-02-22T11:21:42.815Z,988.37
2019-02-22T11:22:42.840Z,988.36
2019-02-22T11:23:42.935Z,988.40
2019-02-22T11:24:42.849Z,988.53
2019-02-22T11:25:42.879Z,988.37
2019-02-22T11:26:42.867Z,988.42
2019-02-22T11:27:42.871Z,988.29
2019-02-22T11:28:42.896Z,988.48
2019-02-22T11:29:42.907Z,988.43
2019-02-22T11:30:43.310Z,988.50
2019-02-22T11:31:42.915Z,988.55
2019-02-22T11:32:42.933Z,988.41
2019-02-22T11:33:42.913Z,988.42
2019-02-22T11:34:42.965Z,988.41
2019-02-22T11:35:42.937Z,988.55
2019-02-22T11:36:42.937Z,988.49
2019-02-22T11:37:42.985Z,988.46
2019-02-22T11:38:42.979Z,988.52
2019-02-22T11:39:42.939Z,988.53
2019-02-22T11:40:42.968Z,988.62
2019-02-22T11:41:44.402Z,988.61
2019-02-22T11:42:43.006Z,988.60
2019-02-22T11:43:43.041Z,988.72
2019-02-22T11:44:42.987Z,988.81
2019-02-22T11:45:42.782Z,988.86
2019-02-22T11:46:42.823Z,988.99
2019-02-22T11:47:42.796Z,988.83
2019-02-22T11:48:43.441Z,988.83
2019-02-22T11:49:42.883Z,988.82
2019-02-22T11:50:42.817Z,989.00
2019-02-22T11:51:42.847Z,989.09
2019-02-22T11:52:42.864Z,989.11
2019-02-22T11:53:42.851Z,989.08
2019-02-22T11:54:42.863Z,989.11
2019-02-22T11:55:42.899Z,989.00
2019-02-22T11:56:42.883Z,989.27
2019-02-22T11:57:42.909Z,989.21
2019-02-22T11:58:42.877Z,989.02
2019-02-22T11:59:42.903Z,989.21
2019-02-22T12:00:42.924Z,989.22
2019-02-22T12:01:42.939Z,989.20
2019-02-22T12:02:45.128Z,989.24
2019-02-22T12:03:42.945Z,989.26
2019-02-22T12:04:42.945Z,989.39
2019-02-22T12:05:42.940Z,989.17
2019-02-22T12:06:42.966Z,989.26
2019-02-22T12:07:42.986Z,989.24
2019-02-22T12:08:42.980Z,989.20
2019-02-22T12:09:42.976Z,989.31
2019-02-22T12:10:42.961Z,989.18
2019-02-22T12:11:42.991Z,989.10
2019-02-22T12:12:43.043Z,989.12
2019-02-22T12:13:43.044Z,989.25
2019-02-22T12:14:51.157Z,989.19
2019-02-22T12:15:42.808Z,989.20
2019-02-22T12:16:42.813Z,989.31
2019-02-22T12:17:42.845Z,989.38
2019-02-22T12:18:42.852Z,989.58
2019-02-22T12:19:42.880Z,989.54
2019-02-22T12:20:42.842Z,989.52
2019-02-22T12:21:42.853Z,989.42
2019-02-22T12:22:42.875Z,989.43
2019-02-22T12:23:42.927Z,989.44
2019-02-22T12:24:42.895Z,989.39
2019-02-22T12:25:44.572Z,989.42
2019-02-22T12:26:42.894Z,989.62
2019-02-22T12:27:42.909Z,989.68
2019-02-22T12:28:42.906Z,989.43